createdAt,value
2023-04-27T00:00:07.937Z,100268.94
2023-04-27T00:02:34.348Z,100276.00
2023-04-27T00:05:02.492Z,100266.34
2023-04-27T00:07:28.935Z,100264.63
2023-04-27T00:09:55.393Z,100266.41
2023-04-27T00:12:21.695Z,100255.03
2023-04-27T00:14:48.033Z,100255.88
2023-04-27T00:17:14.329Z,100255.88
2023-04-27T00:19:41.833Z,100249.75
2023-04-27T00:22:08.768Z,100254.09
2023-04-27T00:24:35.008Z,100255.84
2023-04-27T00:27:01.612Z,100254.16
2023-04-27T00:29:27.918Z,100250.66
2023-04-27T00:31:54.347Z,100248.94
2023-04-27T00:34:20.730Z,100236.59
2023-04-27T00:36:47.008Z,100227.88
2023-04-27T00:39:13.453Z,100239.25
2023-04-27T00:41:39.893Z,100240.19
2023-04-27T00:44:06.340Z,100245.44
2023-04-27T00:46:36.304Z,100246.38
2023-04-27T00:49:02.817Z,100237.66
2023-04-27T00:51:31.188Z,100239.44
2023-04-27T00:53:58.719Z,100236.81
2023-04-27T00:56:25.349Z,100237.66
2023-04-27T00:58:51.653Z,100226.31
2023-04-27T01:01:20.529Z,100222.88
2023-04-27T01:03:47.596Z,100233.38
2023-04-27T01:06:14.145Z,100234.28
2023-04-27T01:08:41.094Z,100242.19
2023-04-27T01:11:07.313Z,100243.13
2023-04-27T01:13:33.664Z,100244.06
2023-04-27T01:15:59.945Z,100250.22
2023-04-27T01:18:26.336Z,100247.59
2023-04-27T01:20:53.337Z,100241.50
2023-04-27T01:23:19.648Z,100260.75
2023-04-27T01:25:46.021Z,100262.53
2023-04-27T01:28:12.571Z,100257.25
2023-04-27T01:30:38.970Z,100258.88
2023-04-27T01:33:05.483Z,100275.50
2023-04-27T01:35:31.982Z,100263.16
2023-04-27T01:37:58.370Z,100264.88
2023-04-27T01:40:24.673Z,100260.47
2023-04-27T01:42:50.984Z,100264.03
2023-04-27T01:45:17.335Z,100270.16
2023-04-27T01:47:43.772Z,100265.88
2023-04-27T01:50:10.616Z,100276.44
2023-04-27T01:52:36.953Z,100280.88
2023-04-27T01:55:03.475Z,100266.88
2023-04-27T01:57:29.815Z,100270.38
2023-04-27T01:59:56.131Z,100275.63
2023-04-27T02:02:22.570Z,100270.38
2023-04-27T02:04:49.061Z,100285.28
2023-04-27T02:07:15.566Z,100280.97
2023-04-27T02:09:42.071Z,100275.75
2023-04-27T02:12:08.454Z,100279.31
2023-04-27T02:14:34.758Z,100286.41
2023-04-27T02:17:01.107Z,100287.31
2023-04-27T02:19:27.412Z,100279.41
2023-04-27T02:21:53.718Z,100282.94
2023-04-27T02:24:20.065Z,100283.00
2023-04-27T02:26:46.392Z,100282.16
2023-04-27T02:29:12.867Z,100283.97
2023-04-27T02:31:39.642Z,100296.28
2023-04-27T02:34:05.967Z,100293.72
2023-04-27T02:36:32.347Z,100301.66
2023-04-27T02:38:58.617Z,100296.41
2023-04-27T02:41:27.856Z,100297.31
2023-04-27T02:43:54.179Z,100298.22
2023-04-27T02:46:20.501Z,100300.84
2023-04-27T02:48:46.782Z,100304.38
2023-04-27T02:51:13.070Z,100301.78
2023-04-27T02:53:39.371Z,100294.75
2023-04-27T02:56:05.868Z,100299.16
2023-04-27T02:58:32.185Z,100289.56
2023-04-27T03:00:58.537Z,100296.56
2023-04-27T03:03:24.998Z,100293.09
2023-04-27T03:05:51.504Z,100295.69
2023-04-27T03:08:17.924Z,100291.31
2023-04-27T03:10:44.277Z,100290.41
2023-04-27T03:13:10.875Z,100293.94
2023-04-27T03:15:37.172Z,100286.09
2023-04-27T03:18:03.746Z,100282.59
2023-04-27T03:20:30.086Z,100279.94
2023-04-27T03:22:56.397Z,100294.88
2023-04-27T03:25:22.768Z,100291.38
2023-04-27T03:27:49.201Z,100280.84
2023-04-27T03:30:15.560Z,100283.50
2023-04-27T03:32:41.960Z,100294.94
2023-04-27T03:35:09.670Z,100284.41
2023-04-27T03:37:35.975Z,100294.94
2023-04-27T03:40:02.280Z,100288.81
2023-04-27T03:42:29.421Z,100284.44
2023-04-27T03:44:55.829Z,100284.44
2023-04-27T03:47:22.676Z,100280.06
2023-04-27T03:49:49.111Z,100270.41
2023-04-27T03:52:15.575Z,100278.31
2023-04-27T03:54:41.877Z,100287.09
2023-04-27T03:57:09.012Z,100283.56
2023-04-27T03:59:35.392Z,100282.69
2023-04-27T04:02:03.848Z,100273.94
2023-04-27T04:04:31.167Z,100287.94
2023-04-27T04:06:57.636Z,100288.81
2023-04-27T04:09:24.145Z,100292.31
2023-04-27T04:11:51.982Z,100294.91
2023-04-27T04:14:18.314Z,100294.03
2023-04-27T04:16:44.612Z,100281.78
2023-04-27T04:19:10.978Z,100293.13
2023-04-27T04:21:37.384Z,100283.50
2023-04-27T04:24:04.014Z,100272.09
2023-04-27T04:26:30.759Z,100279.09
2023-04-27T04:28:57.131Z,100262.47
2023-04-27T04:31:23.468Z,100261.53
2023-04-27T04:33:49.878Z,100276.41
2023-04-27T04:36:16.237Z,100285.19
2023-04-27T04:38:42.540Z,100282.53
2023-04-27T04:41:10.371Z,100272.88
2023-04-27T04:43:36.676Z,100277.22
2023-04-27T04:46:03.146Z,100279.81
2023-04-27T04:48:29.547Z,100275.44
2023-04-27T04:51:00.712Z,100258.84
2023-04-27T04:53:27.122Z,100276.31
2023-04-27T04:55:53.585Z,100284.19
2023-04-27T04:58:19.869Z,100297.34
2023-04-27T05:00:46.155Z,100291.22
2023-04-27T05:03:12.582Z,100296.50
2023-04-27T05:05:39.042Z,100290.34
2023-04-27T05:08:05.501Z,100300.00
2023-04-27T05:10:31.825Z,100304.31
2023-04-27T05:12:58.217Z,100304.28
2023-04-27T05:15:24.581Z,100311.28
2023-04-27T05:17:51.085Z,100316.53
2023-04-27T05:20:17.541Z,100314.78
2023-04-27T05:22:43.822Z,100309.50
2023-04-27T05:25:10.148Z,100314.75
2023-04-27T05:27:36.456Z,100318.22
2023-04-27T05:30:03.258Z,100328.72
2023-04-27T05:32:29.586Z,100319.06
2023-04-27T05:34:56.199Z,100327.88
2023-04-27T05:37:22.525Z,100331.38
2023-04-27T05:39:48.846Z,100330.47
2023-04-27T05:42:15.158Z,100330.47
2023-04-27T05:44:41.620Z,100347.09
2023-04-27T05:47:07.903Z,100331.28
2023-04-27T05:49:34.231Z,100342.69
2023-04-27T05:52:00.741Z,100340.06
2023-04-27T05:54:27.494Z,100342.66
2023-04-27T05:56:53.833Z,100344.38
2023-04-27T05:59:20.262Z,100334.66
2023-04-27T06:01:46.559Z,100331.97
2023-04-27T06:04:12.951Z,100338.00
2023-04-27T06:06:39.346Z,100345.81
2023-04-27T06:09:05.680Z,100344.91
2023-04-27T06:11:31.970Z,100353.56
2023-04-27T06:13:58.376Z,100347.31
2023-04-27T06:16:24.877Z,100351.66
2023-04-27T06:18:51.603Z,100356.78
2023-04-27T06:21:18.033Z,100363.69
2023-04-27T06:23:44.438Z,100353.94
2023-04-27T06:26:11.092Z,100359.00
2023-04-27T06:28:37.815Z,100359.72
2023-04-27T06:31:04.473Z,100366.59
2023-04-27T06:33:30.806Z,100363.75
2023-04-27T06:35:57.106Z,100361.88
2023-04-27T06:38:23.496Z,100370.34
2023-04-27T06:40:53.093Z,100370.00
2023-04-27T06:43:19.550Z,100365.16
2023-04-27T06:45:46.050Z,100359.31
2023-04-27T06:48:12.454Z,100362.31
2023-04-27T06:50:38.793Z,100360.41
2023-04-27T06:53:05.128Z,100348.16
2023-04-27T06:55:31.435Z,100364.84
2023-04-27T06:57:57.794Z,100355.94
2023-04-27T07:00:24.309Z,100353.19
2023-04-27T07:02:51.625Z,100344.28
2023-04-27T07:05:18.501Z,100358.75
2023-04-27T07:07:44.893Z,100357.59
2023-04-27T07:10:11.430Z,100364.38
2023-04-27T07:12:38.479Z,100363.28
2023-04-27T07:15:06.452Z,100362.75
2023-04-27T07:17:33.179Z,100358.69
2023-04-27T07:20:00.880Z,100365.94
2023-04-27T07:22:27.170Z,100377.78
2023-04-27T07:24:53.506Z,100364.88
2023-04-27T07:27:20.332Z,100362.44
2023-04-27T07:29:47.143Z,100361.66
2023-04-27T07:32:13.771Z,100343.47
2023-04-27T07:34:51.787Z,100356.78
2023-04-27T07:37:18.761Z,100357.13
2023-04-27T07:39:45.127Z,100340.41
2023-04-27T07:42:12.325Z,100352.91
2023-04-27T07:44:38.643Z,100355.50
2023-04-27T07:47:05.178Z,100353.09
2023-04-27T07:49:31.536Z,100351.91
2023-04-27T07:51:57.941Z,100340.88
2023-04-27T07:54:24.376Z,100349.25
2023-04-27T07:56:50.724Z,100339.38
2023-04-27T07:59:17.175Z,100341.97
2023-04-27T08:01:43.580Z,100339.88
2023-04-27T08:04:10.089Z,100341.00
2023-04-27T08:06:37.083Z,100338.03
2023-04-27T08:09:04.317Z,100345.22
2023-04-27T08:11:31.498Z,100353.78
2023-04-27T08:13:57.853Z,100344.09
2023-04-27T08:16:24.414Z,100339.75
2023-04-27T08:18:50.863Z,100340.94
2023-04-27T08:21:17.163Z,100339.88
2023-04-27T08:23:43.788Z,100321.69
2023-04-27T08:26:14.501Z,100318.69
2023-04-27T08:28:42.466Z,100315.84
2023-04-27T08:31:09.049Z,100315.72
2023-04-27T08:33:35.395Z,100307.34
2023-04-27T08:36:01.755Z,100303.53
2023-04-27T08:38:28.020Z,100306.66
2023-04-27T08:40:54.318Z,100298.19
2023-04-27T08:43:20.771Z,100299.94
2023-04-27T08:45:49.115Z,100292.69
2023-04-27T08:48:15.731Z,100297.75
2023-04-27T08:50:44.801Z,100292.00
2023-04-27T08:53:18.370Z,100297.59
2023-04-27T08:55:44.750Z,100286.16
2023-04-27T08:58:11.225Z,100297.13
2023-04-27T09:00:43.084Z,100298.63
2023-04-27T09:03:23.302Z,100298.03
2023-04-27T09:06:03.802Z,100296.41
2023-04-27T09:09:01.546Z,100308.66
2023-04-27T09:11:31.250Z,100299.28
2023-04-27T09:13:59.770Z,100295.66
2023-04-27T09:16:29.050Z,100308.91
2023-04-27T09:18:57.225Z,100300.38
2023-04-27T09:21:31.210Z,100294.25
2023-04-27T09:23:57.509Z,100287.66
2023-04-27T09:26:27.720Z,100283.56
2023-04-27T09:28:57.854Z,100287.16
2023-04-27T09:31:35.479Z,100289.94
2023-04-27T09:34:03.309Z,100295.22
2023-04-27T09:36:33.398Z,100287.66
2023-04-27T09:39:05.123Z,100296.47
2023-04-27T09:41:36.448Z,100278.69
2023-04-27T09:44:04.082Z,100281.44
2023-04-27T09:46:33.716Z,100280.56
2023-04-27T09:49:06.040Z,100281.84
2023-04-27T09:51:33.739Z,100281.09
2023-04-27T09:54:04.082Z,100276.28
2023-04-27T09:56:52.221Z,100275.69
2023-04-27T09:59:37.282Z,100266.53
2023-04-27T10:02:20.883Z,100258.19
2023-04-27T10:05:08.958Z,100262.28
2023-04-27T10:07:36.125Z,100256.63
2023-04-27T10:10:05.012Z,100263.13
2023-04-27T10:12:38.849Z,100260.84
2023-04-27T10:15:13.836Z,100258.91
2023-04-27T10:17:48.558Z,100251.13
2023-04-27T10:20:15.429Z,100258.72
2023-04-27T10:22:50.034Z,100259.34
2023-04-27T10:25:16.520Z,100259.78
2023-04-27T10:27:44.431Z,100249.53
2023-04-27T10:30:12.414Z,100253.19
2023-04-27T10:32:51.364Z,100253.41
2023-04-27T10:35:17.858Z,100258.31
2023-04-27T10:37:44.374Z,100255.50
2023-04-27T10:40:14.622Z,100251.19
2023-04-27T10:42:42.153Z,100240.22
2023-04-27T10:45:09.168Z,100248.94
2023-04-27T10:47:41.078Z,100247.41
2023-04-27T10:50:13.502Z,100237.06
2023-04-27T10:52:44.420Z,100235.94
2023-04-27T10:55:22.731Z,100239.41
2023-04-27T10:57:53.997Z,100239.34
2023-04-27T11:00:32.073Z,100254.41
2023-04-27T11:03:19.272Z,100240.53
2023-04-27T11:05:47.928Z,100234.41
2023-04-27T11:08:19.104Z,100248.22
2023-04-27T11:10:49.783Z,100230.56
2023-04-27T11:13:18.283Z,100239.44
2023-04-27T11:15:47.854Z,100234.66
2023-04-27T11:18:15.826Z,100224.63
2023-04-27T11:20:44.366Z,100223.91
2023-04-27T11:23:11.075Z,100230.28
2023-04-27T11:25:38.452Z,100227.31
2023-04-27T11:28:05.022Z,100224.59
2023-04-27T11:30:31.462Z,100226.88
2023-04-27T11:32:57.845Z,100227.91
2023-04-27T11:35:36.433Z,100226.16
2023-04-27T11:38:03.134Z,100214.09
2023-04-27T11:40:29.492Z,100217.97
2023-04-27T11:42:59.544Z,100219.88
2023-04-27T11:45:29.924Z,100224.38
2023-04-27T11:47:59.051Z,100212.13
2023-04-27T11:50:26.632Z,100210.63
2023-04-27T11:52:53.305Z,100224.47
2023-04-27T11:55:22.717Z,100214.41
2023-04-27T11:57:49.125Z,100206.28
2023-04-27T12:00:16.463Z,100208.75
2023-04-27T12:02:44.257Z,100203.06
2023-04-27T12:05:12.533Z,100197.69
2023-04-27T12:07:39.455Z,100188.31
2023-04-27T12:10:06.706Z,100193.56
2023-04-27T12:12:33.523Z,100193.50
2023-04-27T12:14:59.863Z,100179.13
2023-04-27T12:17:26.789Z,100177.78
2023-04-27T12:19:53.139Z,100182.56
2023-04-27T12:22:20.043Z,100180.00
2023-04-27T12:24:46.457Z,100178.09
2023-04-27T12:27:12.747Z,100178.63
2023-04-27T12:29:39.125Z,100170.84
2023-04-27T12:32:05.926Z,100162.47
2023-04-27T12:34:32.699Z,100164.47
2023-04-27T12:36:59.026Z,100162.81
2023-04-27T12:39:25.403Z,100162.81
2023-04-27T12:41:53.508Z,100151.16
2023-04-27T12:44:20.461Z,100154.81
2023-04-27T12:46:50.550Z,100163.31
2023-04-27T12:49:17.721Z,100162.13
2023-04-27T12:51:45.468Z,100155.56
2023-04-27T12:54:12.901Z,100154.53
2023-04-27T12:56:39.560Z,100162.34
2023-04-27T12:59:06.188Z,100150.72
2023-04-27T13:01:32.636Z,100140.41
2023-04-27T13:04:04.056Z,100143.31
2023-04-27T13:06:31.837Z,100147.84
2023-04-27T13:09:00.934Z,100152.75
2023-04-27T13:11:27.354Z,100153.03
2023-04-27T13:13:54.913Z,100140.75
2023-04-27T13:16:22.664Z,100143.75
2023-04-27T13:18:51.894Z,100136.53
2023-04-27T13:21:18.273Z,100137.56
2023-04-27T13:23:44.769Z,100135.91
2023-04-27T13:26:11.448Z,100146.38
2023-04-27T13:28:37.795Z,100132.59
2023-04-27T13:31:04.400Z,100127.00
2023-04-27T13:33:33.423Z,100136.28
2023-04-27T13:36:02.155Z,100142.72
2023-04-27T13:38:28.881Z,100135.44
2023-04-27T13:40:55.233Z,100129.84
2023-04-27T13:43:21.573Z,100124.88
2023-04-27T13:45:49.498Z,100138.63
2023-04-27T13:48:17.414Z,100137.03
2023-04-27T13:50:43.761Z,100136.53
2023-04-27T13:53:10.267Z,100133.41
2023-04-27T13:55:37.165Z,100135.44
2023-04-27T13:58:03.574Z,100146.19
2023-04-27T14:00:33.384Z,100133.53
2023-04-27T14:03:01.309Z,100138.53
2023-04-27T14:05:27.759Z,100143.81
2023-04-27T14:07:54.045Z,100141.16
2023-04-27T14:10:20.392Z,100132.69
2023-04-27T14:12:46.931Z,100136.34
2023-04-27T14:15:13.225Z,100132.03
2023-04-27T14:17:39.618Z,100150.69
2023-04-27T14:20:06.904Z,100130.59
2023-04-27T14:22:34.926Z,100144.66
2023-04-27T14:25:01.323Z,100143.41
2023-04-27T14:27:28.690Z,100136.28
2023-04-27T14:29:54.969Z,100143.50
2023-04-27T14:32:21.509Z,100143.69
2023-04-27T14:34:47.945Z,100144.78
2023-04-27T14:37:14.269Z,100138.94
2023-04-27T14:39:41.851Z,100144.66
2023-04-27T14:42:09.726Z,100134.97
2023-04-27T14:44:36.662Z,100142.09
2023-04-27T14:47:03.043Z,100141.00
2023-04-27T14:49:29.369Z,100142.72
2023-04-27T14:51:55.664Z,100143.16
2023-04-27T14:54:22.032Z,100144.19
2023-04-27T14:56:48.434Z,100138.50
2023-04-27T14:59:15.027Z,100139.28
2023-04-27T15:01:41.545Z,100145.94
2023-04-27T15:04:11.436Z,100144.72
2023-04-27T15:06:37.794Z,100146.97
2023-04-27T15:09:04.638Z,100141.50
2023-04-27T15:11:31.016Z,100151.50
2023-04-27T15:13:57.332Z,100141.59
2023-04-27T15:16:23.681Z,100130.88
2023-04-27T15:18:50.051Z,100141.88
2023-04-27T15:21:16.292Z,100135.53
2023-04-27T15:23:42.576Z,100117.53
2023-04-27T15:26:08.887Z,100125.81
2023-04-27T15:28:36.213Z,100116.31
2023-04-27T15:31:03.237Z,100115.31
2023-04-27T15:33:29.598Z,100112.84
2023-04-27T15:35:56.230Z,100113.38
2023-04-27T15:38:22.849Z,100106.97
2023-04-27T15:40:49.170Z,100106.41
2023-04-27T15:43:15.601Z,100101.25
2023-04-27T15:45:42.241Z,100096.50
2023-04-27T15:48:08.603Z,100089.25
2023-04-27T15:50:35.034Z,100083.75
2023-04-27T15:53:01.511Z,100083.50
2023-04-27T15:55:27.855Z,100081.41
2023-04-27T15:57:54.101Z,100089.78
2023-04-27T16:00:22.207Z,100086.94
2023-04-27T16:02:48.743Z,100082.03
2023-04-27T16:05:15.190Z,100084.25
2023-04-27T16:07:45.526Z,100071.06
2023-04-27T16:10:12.655Z,100063.28
2023-04-27T16:12:39.736Z,100057.25
2023-04-27T16:15:10.090Z,100056.63
2023-04-27T16:17:37.767Z,100050.28
2023-04-27T16:20:07.348Z,100050.38
2023-04-27T16:22:37.990Z,100053.59
2023-04-27T16:25:10.066Z,100050.78
2023-04-27T16:27:40.063Z,100055.94
2023-04-27T16:30:07.444Z,100057.88
2023-04-27T16:32:35.570Z,100051.06
2023-04-27T16:35:02.387Z,100052.28
2023-04-27T16:37:28.758Z,100044.81
2023-04-27T16:39:58.987Z,100049.25
2023-04-27T16:42:25.630Z,100053.06
2023-04-27T16:44:52.061Z,100038.34
2023-04-27T16:47:18.398Z,100047.16
2023-04-27T16:49:44.727Z,100050.03
2023-04-27T16:52:11.851Z,100044.16
2023-04-27T16:54:38.195Z,100053.81
2023-04-27T16:57:04.600Z,100052.38
2023-04-27T16:59:31.122Z,100049.16
2023-04-27T17:02:01.717Z,100054.25
2023-04-27T17:04:39.820Z,100054.28
2023-04-27T17:07:07.174Z,100059.31
2023-04-27T17:09:36.486Z,100055.53
2023-04-27T17:12:03.697Z,100063.50
2023-04-27T17:14:30.247Z,100070.38
2023-04-27T17:16:56.534Z,100060.78
2023-04-27T17:19:22.839Z,100060.56
2023-04-27T17:21:49.124Z,100061.47
2023-04-27T17:24:15.467Z,100056.16
2023-04-27T17:26:41.715Z,100053.94
2023-04-27T17:29:08.052Z,100050.13
2023-04-27T17:31:34.341Z,100049.63
2023-04-27T17:34:02.086Z,100050.19
2023-04-27T17:36:28.475Z,100052.50
2023-04-27T17:38:54.819Z,100051.66
2023-04-27T17:41:21.151Z,100047.31
2023-04-27T17:43:49.774Z,100049.41
2023-04-27T17:46:16.116Z,100043.53
2023-04-27T17:48:42.924Z,100043.88
2023-04-27T17:51:09.293Z,100047.16
2023-04-27T17:53:35.704Z,100052.00
2023-04-27T17:56:02.324Z,100043.66
2023-04-27T17:58:28.625Z,100032.59
2023-04-27T18:00:54.971Z,100041.75
2023-04-27T18:03:22.320Z,100057.19
2023-04-27T18:05:48.775Z,100055.81
2023-04-27T18:08:15.111Z,100062.19
2023-04-27T18:10:41.560Z,100057.31
2023-04-27T18:13:07.861Z,100044.59
2023-04-27T18:15:34.291Z,100041.28
2023-04-27T18:18:00.647Z,100045.94
2023-04-27T18:20:28.014Z,100043.69
2023-04-27T18:22:54.397Z,100032.44
2023-04-27T18:25:20.733Z,100037.31
2023-04-27T18:27:49.659Z,100038.50
2023-04-27T18:30:16.145Z,100045.00
2023-04-27T18:32:42.393Z,100040.88
2023-04-27T18:35:09.187Z,100042.09
2023-04-27T18:37:35.490Z,100037.00
2023-04-27T18:40:01.814Z,100038.31
2023-04-27T18:42:28.198Z,100035.94
2023-04-27T18:45:00.490Z,100036.88
2023-04-27T18:47:27.226Z,100032.47
2023-04-27T18:49:53.545Z,100026.56
2023-04-27T18:52:19.979Z,100036.41
2023-04-27T18:54:46.249Z,100043.63
2023-04-27T18:57:12.546Z,100035.19
2023-04-27T18:59:39.410Z,100044.25
2023-04-27T19:02:07.037Z,100050.75
2023-04-27T19:04:33.791Z,100044.03
2023-04-27T19:07:00.634Z,100051.19
2023-04-27T19:09:27.068Z,100031.28
2023-04-27T19:12:02.730Z,100042.75
2023-04-27T19:14:31.096Z,100042.97
2023-04-27T19:16:57.577Z,100032.75
2023-04-27T19:19:24.716Z,100046.78
2023-04-27T19:21:51.099Z,100046.09
2023-04-27T19:24:17.509Z,100045.44
2023-04-27T19:26:44.416Z,100029.91
2023-04-27T19:29:10.840Z,100045.72
2023-04-27T19:31:37.299Z,100041.69
2023-04-27T19:34:04.698Z,100038.44
2023-04-27T19:36:31.798Z,100036.25
2023-04-27T19:38:58.079Z,100046.25
2023-04-27T19:41:25.099Z,100047.69
2023-04-27T19:43:51.398Z,100046.13
2023-04-27T19:46:17.810Z,100038.69
2023-04-27T19:48:44.158Z,100047.69
2023-04-27T19:51:10.835Z,100035.47
2023-04-27T19:53:40.222Z,100043.63
2023-04-27T19:56:07.315Z,100043.84
2023-04-27T19:58:35.629Z,100057.97
2023-04-27T20:01:02.227Z,100044.06
2023-04-27T20:03:28.627Z,100047.53
2023-04-27T20:05:55.818Z,100044.16
2023-04-27T20:08:22.512Z,100039.25
2023-04-27T20:10:49.016Z,100046.25
2023-04-27T20:13:15.375Z,100047.25
2023-04-27T20:15:43.133Z,100039.56
2023-04-27T20:18:09.484Z,100040.50
2023-04-27T20:20:36.306Z,100042.44
2023-04-27T20:23:02.619Z,100040.97
2023-04-27T20:25:28.999Z,100044.69
2023-04-27T20:27:55.314Z,100038.69
2023-04-27T20:30:21.677Z,100039.69
2023-04-27T20:32:48.609Z,100026.66
2023-04-27T20:35:15.252Z,100030.06
2023-04-27T20:37:43.433Z,100031.00
2023-04-27T20:40:17.256Z,100021.47
2023-04-27T20:42:45.519Z,100023.28
2023-04-27T20:45:11.918Z,100020.72
2023-04-27T20:47:38.586Z,100033.41
2023-04-27T20:50:06.199Z,100024.66
2023-04-27T20:52:34.408Z,100020.44
2023-04-27T20:55:01.385Z,100012.53
2023-04-27T20:57:27.656Z,100009.97
2023-04-27T20:59:53.952Z,100002.16
2023-04-27T21:02:20.618Z,99996.78
2023-04-27T21:04:47.050Z,100011.06
2023-04-27T21:07:13.498Z,100011.06
2023-04-27T21:09:39.812Z,100005.03
2023-04-27T21:12:06.596Z,99995.53
2023-04-27T21:14:33.684Z,100009.00
2023-04-27T21:17:00.292Z,100005.50
2023-04-27T21:19:26.622Z,100003.88
2023-04-27T21:21:52.999Z,100008.44
2023-04-27T21:24:19.819Z,99992.72
2023-04-27T21:26:46.233Z,99992.00
2023-04-27T21:29:12.573Z,99988.44
2023-04-27T21:31:38.949Z,99998.97
2023-04-27T21:34:05.311Z,99992.91
2023-04-27T21:36:32.095Z,99998.22
2023-04-27T21:38:58.408Z,99993.03
2023-04-27T21:41:24.697Z,99983.50
2023-04-27T21:43:51.150Z,99987.97
2023-04-27T21:46:17.560Z,99964.09
2023-04-27T21:48:43.923Z,99971.19
2023-04-27T21:51:10.331Z,99977.41
2023-04-27T21:53:36.868Z,99973.94
2023-04-27T21:56:03.185Z,99974.19
2023-04-27T21:58:29.536Z,99974.13
2023-04-27T22:00:55.937Z,99963.47
2023-04-27T22:03:22.787Z,99972.41
2023-04-27T22:05:50.143Z,99961.81
2023-04-27T22:08:17.316Z,99964.47
2023-04-27T22:10:44.535Z,99960.16
2023-04-27T22:13:18.918Z,99961.81
2023-04-27T22:15:46.003Z,99973.28
2023-04-27T22:18:14.313Z,99966.19
2023-04-27T22:20:40.870Z,99963.47
2023-04-27T22:23:07.448Z,99957.16
2023-04-27T22:25:33.739Z,99954.34
2023-04-27T22:28:00.037Z,99956.88
2023-04-27T22:30:26.331Z,99949.75
2023-04-27T22:32:52.781Z,99950.75
2023-04-27T22:35:26.430Z,99950.50
2023-04-27T22:37:55.096Z,99945.13
2023-04-27T22:40:21.608Z,99945.94
2023-04-27T22:42:47.904Z,99948.59
2023-04-27T22:45:14.277Z,99944.97
2023-04-27T22:47:41.323Z,99941.53
2023-04-27T22:50:08.423Z,99940.66
2023-04-27T22:52:34.817Z,99929.41
2023-04-27T22:55:04.358Z,99943.31
2023-04-27T22:57:30.814Z,99950.31
2023-04-27T22:59:57.126Z,99940.66
2023-04-27T23:02:25.977Z,99940.53
2023-04-27T23:04:52.397Z,99935.16
2023-04-27T23:07:18.921Z,99935.91
2023-04-27T23:09:45.721Z,99919.88
2023-04-27T23:12:12.017Z,99909.22
2023-04-27T23:14:39.849Z,99911.75
2023-04-27T23:17:07.325Z,99905.41
2023-04-27T23:19:34.280Z,99893.25
2023-04-27T23:22:01.627Z,99903.59
2023-04-27T23:24:29.086Z,99896.50
2023-04-27T23:26:55.350Z,99893.97
2023-04-27T23:29:21.627Z,99895.63
2023-04-27T23:31:47.954Z,99892.19
2023-04-27T23:34:15.139Z,99899.28
2023-04-27T23:36:41.840Z,99892.25
2023-04-27T23:39:08.328Z,99892.28
2023-04-27T23:41:34.582Z,99885.13
2023-04-27T23:44:00.847Z,99893.09
2023-04-27T23:46:27.230Z,99884.19
2023-04-27T23:48:53.516Z,99888.56
2023-04-27T23:51:19.791Z,99890.38
2023-04-27T23:53:46.065Z,99880.59
2023-04-27T23:56:17.199Z,99878.72
2023-04-27T23:58:43.556Z,99870.88
